MSC Mirella — 3FTW9 — position and weather

sailwx.info

Track history (hours):
 
Tides and Currents Weather Stations Pressure Air Temp Water Temp Dewpoint Dewpoint Depression Visibility Wind Speed Wind Dir Waves Ship Positions

MSC Mirella

Last reported at 2017-Nov-22 21:26 UTC. Time now 2018-Jul-22 04:41 UTC.
Position N 35°28' E 026°15'.
Warning: this ship's position is months out of date.

Length 177 m; draft 11.9 m.

Type: Ship (hazmat cat A). MMSI: 357814000.

Date/timePositionNaut miles runAvg speedWind from/ knotsBaromVisibWave heightAir tempDewpointWater temp
2017-Nov-22 21:26N 35°28' E 026°15'5 9.7
2017-Nov-22 20:54N 35°31' E 026°10'4 9.7
2017-Nov-22 20:30N 35°33' E 026°06'5 9.7
2017-Nov-22 20:00N 35°35' E 026°00'5 9.6
2017-Nov-22 19:30N 35°38' E 025°55'  
2017-Nov-14 08:40N 46°18' E 030°45'2 9.5
2017-Nov-14 08:30N 46°19' E 030°43'11 0.4
2017-Nov-13 01:53N 46°29' E 030°46'0 0.0
2017-Nov-13 01:29N 46°29' E 030°46'0 0.0
2017-Nov-13 00:59N 46°29' E 030°46'0 0.0
2017-Nov-13 00:29N 46°29' E 030°46'0 0.0
2017-Nov-12 23:50N 46°29' E 030°46'0 0.0
2017-Nov-12 23:29N 46°29' E 030°46'0 0.0
2017-Nov-12 22:56N 46°29' E 030°46'0 0.0
2017-Nov-12 22:29N 46°29' E 030°46'0 0.0
2017-Nov-12 21:59N 46°29' E 030°46'  
Track history (hours):
 
Tides and Currents Weather Stations Pressure Air Temp Water Temp Dewpoint Dewpoint Depression Visibility Wind Speed Wind Dir Waves Ship Positions

MSC Mirella

Last reported at 2017-Nov-22 21:26 UTC. Time now 2018-Jul-22 04:41 UTC.
Position N 35°28' E 026°15'.
Warning: this ship's position is months out of date.

Length 177 m; draft 11.9 m.

Type: Ship (hazmat cat A). MMSI: 357814000.

Date/timePositionNaut miles runAvg speedWind from/ knotsBaromVisibWave heightAir tempDewpointWater temp
2017-Nov-22 21:26N 35°28' E 026°15'5 9.7
2017-Nov-22 20:54N 35°31' E 026°10'4 9.7
2017-Nov-22 20:30N 35°33' E 026°06'5 9.7
2017-Nov-22 20:00N 35°35' E 026°00'5 9.6
2017-Nov-22 19:30N 35°38' E 025°55'  
2017-Nov-14 08:40N 46°18' E 030°45'2 9.5
2017-Nov-14 08:30N 46°19' E 030°43'11 0.4
2017-Nov-13 01:53N 46°29' E 030°46'0 0.0
2017-Nov-13 01:29N 46°29' E 030°46'0 0.0
2017-Nov-13 00:59N 46°29' E 030°46'0 0.0
2017-Nov-13 00:29N 46°29' E 030°46'0 0.0
2017-Nov-12 23:50N 46°29' E 030°46'0 0.0
2017-Nov-12 23:29N 46°29' E 030°46'0 0.0
2017-Nov-12 22:56N 46°29' E 030°46'0 0.0
2017-Nov-12 22:29N 46°29' E 030°46'0 0.0
2017-Nov-12 21:59N 46°29' E 030°46'  

Dump ship's entire track history